sensor_id;sensor_type;location;lat;lon;timestamp;temperature;humidity
33207;DHT22;19565;46.602;11.534;2023-04-25T00:01:58;9.20;92.90
33207;DHT22;19565;46.602;11.534;2023-04-25T00:04:27;9.00;93.10
33207;DHT22;19565;46.602;11.534;2023-04-25T00:06:56;9.30;93.10
33207;DHT22;19565;46.602;11.534;2023-04-25T00:09:25;9.60;92.50
33207;DHT22;19565;46.602;11.534;2023-04-25T00:11:53;9.80;92.10
33207;DHT22;19565;46.602;11.534;2023-04-25T00:14:21;10.10;91.60
33207;DHT22;19565;46.602;11.534;2023-04-25T00:16:49;10.20;91.40
33207;DHT22;19565;46.602;11.534;2023-04-25T00:19:18;10.20;90.90
33207;DHT22;19565;46.602;11.534;2023-04-25T00:21:48;9.50;92.00
33207;DHT22;19565;46.602;11.534;2023-04-25T00:24:16;9.20;92.60
33207;DHT22;19565;46.602;11.534;2023-04-25T00:26:43;9.00;93.10
33207;DHT22;19565;46.602;11.534;2023-04-25T00:29:11;9.00;93.20
33207;DHT22;19565;46.602;11.534;2023-04-25T00:31:40;8.90;93.60
33207;DHT22;19565;46.602;11.534;2023-04-25T00:34:09;8.80;93.60
33207;DHT22;19565;46.602;11.534;2023-04-25T00:36:37;8.90;93.30
33207;DHT22;19565;46.602;11.534;2023-04-25T00:39:06;9.00;92.90
33207;DHT22;19565;46.602;11.534;2023-04-25T00:41:35;9.10;92.80
33207;DHT22;19565;46.602;11.534;2023-04-25T00:44:03;9.00;93.20
33207;DHT22;19565;46.602;11.534;2023-04-25T00:46:32;8.90;93.10
33207;DHT22;19565;46.602;11.534;2023-04-25T00:49:01;8.80;93.60
33207;DHT22;19565;46.602;11.534;2023-04-25T00:51:30;8.70;93.60
33207;DHT22;19565;46.602;11.534;2023-04-25T00:54:00;8.70;93.50
33207;DHT22;19565;46.602;11.534;2023-04-25T00:56:30;8.60;93.60
33207;DHT22;19565;46.602;11.534;2023-04-25T00:58:59;8.60;93.50
33207;DHT22;19565;46.602;11.534;2023-04-25T01:01:27;8.70;93.60
33207;DHT22;19565;46.602;11.534;2023-04-25T01:03:56;8.70;93.50
33207;DHT22;19565;46.602;11.534;2023-04-25T01:06:26;8.60;93.60
33207;DHT22;19565;46.602;11.534;2023-04-25T01:08:54;8.70;93.40
33207;DHT22;19565;46.602;11.534;2023-04-25T01:11:22;8.60;93.70
33207;DHT22;19565;46.602;11.534;2023-04-25T01:13:51;8.50;93.70
33207;DHT22;19565;46.602;11.534;2023-04-25T01:16:19;8.40;94.10
33207;DHT22;19565;46.602;11.534;2023-04-25T01:18:51;8.40;94.10
33207;DHT22;19565;46.602;11.534;2023-04-25T01:21:20;8.60;94.00
33207;DHT22;19565;46.602;11.534;2023-04-25T01:23:48;8.60;93.90
33207;DHT22;19565;46.602;11.534;2023-04-25T01:26:17;8.50;94.10
33207;DHT22;19565;46.602;11.534;2023-04-25T01:28:48;8.50;94.20
33207;DHT22;19565;46.602;11.534;2023-04-25T01:31:17;8.50;94.40
33207;DHT22;19565;46.602;11.534;2023-04-25T01:33:45;8.40;94.40
33207;DHT22;19565;46.602;11.534;2023-04-25T01:36:14;8.20;94.80
33207;DHT22;19565;46.602;11.534;2023-04-25T01:38:44;8.30;95.00
33207;DHT22;19565;46.602;11.534;2023-04-25T01:41:14;8.30;95.00
33207;DHT22;19565;46.602;11.534;2023-04-25T01:43:43;8.20;94.90
33207;DHT22;19565;46.602;11.534;2023-04-25T01:46:12;8.20;95.10
33207;DHT22;19565;46.602;11.534;2023-04-25T01:48:40;8.10;95.30
33207;DHT22;19565;46.602;11.534;2023-04-25T01:51:08;8.20;95.70
33207;DHT22;19565;46.602;11.534;2023-04-25T01:53:38;8.20;95.30
33207;DHT22;19565;46.602;11.534;2023-04-25T01:56:08;8.30;95.10
33207;DHT22;19565;46.602;11.534;2023-04-25T01:58:36;8.40;95.00
33207;DHT22;19565;46.602;11.534;2023-04-25T02:01:04;8.40;95.30
33207;DHT22;19565;46.602;11.534;2023-04-25T02:03:34;8.70;94.90
33207;DHT22;19565;46.602;11.534;2023-04-25T02:06:02;8.90;94.70
33207;DHT22;19565;46.602;11.534;2023-04-25T02:08:31;9.00;94.10
33207;DHT22;19565;46.602;11.534;2023-04-25T02:10:59;9.20;94.00
33207;DHT22;19565;46.602;11.534;2023-04-25T02:13:28;9.20;93.60
33207;DHT22;19565;46.602;11.534;2023-04-25T02:15:57;9.10;93.30
33207;DHT22;19565;46.602;11.534;2023-04-25T02:18:25;8.80;94.00
33207;DHT22;19565;46.602;11.534;2023-04-25T02:20:54;8.80;94.10
33207;DHT22;19565;46.602;11.534;2023-04-25T02:23:22;8.90;94.30
33207;DHT22;19565;46.602;11.534;2023-04-25T02:25:50;8.70;94.40
33207;DHT22;19565;46.602;11.534;2023-04-25T02:28:18;8.40;94.80
33207;DHT22;19565;46.602;11.534;2023-04-25T02:30:47;8.30;95.10
33207;DHT22;19565;46.602;11.534;2023-04-25T02:33:15;8.60;94.90
33207;DHT22;19565;46.602;11.534;2023-04-25T02:35:43;8.70;94.70
33207;DHT22;19565;46.602;11.534;2023-04-25T02:38:12;8.80;94.20
33207;DHT22;19565;46.602;11.534;2023-04-25T02:40:39;8.80;93.80
33207;DHT22;19565;46.602;11.534;2023-04-25T02:43:08;8.60;93.90
33207;DHT22;19565;46.602;11.534;2023-04-25T02:45:36;8.50;94.20
33207;DHT22;19565;46.602;11.534;2023-04-25T02:48:06;8.30;94.60
33207;DHT22;19565;46.602;11.534;2023-04-25T02:50:34;8.40;94.60
33207;DHT22;19565;46.602;11.534;2023-04-25T02:53:02;8.40;94.50
33207;DHT22;19565;46.602;11.534;2023-04-25T02:55:29;8.40;94.70
33207;DHT22;19565;46.602;11.534;2023-04-25T02:57:57;8.40;94.70
33207;DHT22;19565;46.602;11.534;2023-04-25T03:00:25;8.50;94.70
33207;DHT22;19565;46.602;11.534;2023-04-25T03:02:53;8.40;94.50
33207;DHT22;19565;46.602;11.534;2023-04-25T03:05:23;8.50;94.50
33207;DHT22;19565;46.602;11.534;2023-04-25T03:07:51;8.50;94.30
33207;DHT22;19565;46.602;11.534;2023-04-25T03:10:19;8.50;94.50
33207;DHT22;19565;46.602;11.534;2023-04-25T03:12:47;8.40;94.80
33207;DHT22;19565;46.602;11.534;2023-04-25T03:15:15;8.20;95.00
33207;DHT22;19565;46.602;11.534;2023-04-25T03:17:44;8.10;95.20
33207;DHT22;19565;46.602;11.534;2023-04-25T03:20:12;7.90;95.50
33207;DHT22;19565;46.602;11.534;2023-04-25T03:22:41;7.80;95.80
33207;DHT22;19565;46.602;11.534;2023-04-25T03:25:10;7.90;95.80
33207;DHT22;19565;46.602;11.534;2023-04-25T03:27:38;7.80;95.60
33207;DHT22;19565;46.602;11.534;2023-04-25T03:30:07;7.70;95.90
33207;DHT22;19565;46.602;11.534;2023-04-25T03:32:35;7.90;95.90
33207;DHT22;19565;46.602;11.534;2023-04-25T03:35:04;7.80;96.00
33207;DHT22;19565;46.602;11.534;2023-04-25T03:37:32;7.70;96.10
33207;DHT22;19565;46.602;11.534;2023-04-25T03:40:01;7.70;96.20
33207;DHT22;19565;46.602;11.534;2023-04-25T03:42:30;7.60;96.20
33207;DHT22;19565;46.602;11.534;2023-04-25T03:44:58;7.50;96.50
33207;DHT22;19565;46.602;11.534;2023-04-25T03:47:26;7.40;97.00
33207;DHT22;19565;46.602;11.534;2023-04-25T03:49:54;7.40;97.10
33207;DHT22;19565;46.602;11.534;2023-04-25T03:52:22;7.30;97.50
33207;DHT22;19565;46.602;11.534;2023-04-25T03:54:50;7.20;97.80
33207;DHT22;19565;46.602;11.534;2023-04-25T03:57:22;7.20;97.90
33207;DHT22;19565;46.602;11.534;2023-04-25T03:59:50;7.10;98.20
33207;DHT22;19565;46.602;11.534;2023-04-25T04:02:18;7.10;98.40
33207;DHT22;19565;46.602;11.534;2023-04-25T04:04:46;7.20;98.30
33207;DHT22;19565;46.602;11.534;2023-04-25T04:07:14;7.30;98.20
33207;DHT22;19565;46.602;11.534;2023-04-25T04:09:42;7.20;98.30
33207;DHT22;19565;46.602;11.534;2023-04-25T04:12:10;7.20;98.50
33207;DHT22;19565;46.602;11.534;2023-04-25T04:14:40;7.10;98.40
33207;DHT22;19565;46.602;11.534;2023-04-25T04:17:08;7.20;98.50
33207;DHT22;19565;46.602;11.534;2023-04-25T04:19:36;7.20;98.10
33207;DHT22;19565;46.602;11.534;2023-04-25T04:22:04;7.30;98.30
33207;DHT22;19565;46.602;11.534;2023-04-25T04:24:32;7.50;98.50
33207;DHT22;19565;46.602;11.534;2023-04-25T04:27:00;7.30;98.20
33207;DHT22;19565;46.602;11.534;2023-04-25T04:29:28;7.30;98.40
33207;DHT22;19565;46.602;11.534;2023-04-25T04:31:58;7.00;98.80
33207;DHT22;19565;46.602;11.534;2023-04-25T04:34:27;7.00;98.80
33207;DHT22;19565;46.602;11.534;2023-04-25T04:36:55;7.10;98.70
33207;DHT22;19565;46.602;11.534;2023-04-25T04:39:23;7.00;98.90
33207;DHT22;19565;46.602;11.534;2023-04-25T04:41:52;7.10;98.80
33207;DHT22;19565;46.602;11.534;2023-04-25T04:44:20;7.00;99.10
33207;DHT22;19565;46.602;11.534;2023-04-25T04:46:49;7.10;99.10
33207;DHT22;19565;46.602;11.534;2023-04-25T04:49:19;7.10;98.70
33207;DHT22;19565;46.602;11.534;2023-04-25T04:51:47;7.20;98.60
33207;DHT22;19565;46.602;11.534;2023-04-25T04:54:16;7.30;98.40
33207;DHT22;19565;46.602;11.534;2023-04-25T04:56:44;7.30;98.30
33207;DHT22;19565;46.602;11.534;2023-04-25T04:59:12;7.50;97.90
33207;DHT22;19565;46.602;11.534;2023-04-25T05:01:40;7.60;97.60
33207;DHT22;19565;46.602;11.534;2023-04-25T05:04:08;7.70;97.70
33207;DHT22;19565;46.602;11.534;2023-04-25T05:06:38;7.80;97.30
33207;DHT22;19565;46.602;11.534;2023-04-25T05:09:07;7.60;97.50
33207;DHT22;19565;46.602;11.534;2023-04-25T05:11:35;7.50;97.90
33207;DHT22;19565;46.602;11.534;2023-04-25T05:14:03;7.60;97.80
33207;DHT22;19565;46.602;11.534;2023-04-25T05:16:31;7.60;97.70
33207;DHT22;19565;46.602;11.534;2023-04-25T05:18:59;7.50;97.80
33207;DHT22;19565;46.602;11.534;2023-04-25T05:21:27;7.60;97.60
33207;DHT22;19565;46.602;11.534;2023-04-25T05:23:57;7.60;97.50
33207;DHT22;19565;46.602;11.534;2023-04-25T05:26:25;7.80;97.50
33207;DHT22;19565;46.602;11.534;2023-04-25T05:28:53;7.70;96.90
33207;DHT22;19565;46.602;11.534;2023-04-25T05:31:21;7.70;97.30
33207;DHT22;19565;46.602;11.534;2023-04-25T05:33:49;7.90;97.10
33207;DHT22;19565;46.602;11.534;2023-04-25T05:36:18;7.90;96.40
33207;DHT22;19565;46.602;11.534;2023-04-25T05:38:46;8.00;96.70
33207;DHT22;19565;46.602;11.534;2023-04-25T05:41:16;7.90;96.60
33207;DHT22;19565;46.602;11.534;2023-04-25T05:43:44;8.00;96.50
33207;DHT22;19565;46.602;11.534;2023-04-25T05:46:15;8.10;96.40
33207;DHT22;19565;46.602;11.534;2023-04-25T05:48:46;8.10;96.30
33207;DHT22;19565;46.602;11.534;2023-04-25T05:51:14;8.30;96.40
33207;DHT22;19565;46.602;11.534;2023-04-25T05:53:43;8.40;96.10
33207;DHT22;19565;46.602;11.534;2023-04-25T05:56:10;8.60;95.90
33207;DHT22;19565;46.602;11.534;2023-04-25T05:58:40;8.70;96.10
33207;DHT22;19565;46.602;11.534;2023-04-25T06:01:08;8.80;95.20
33207;DHT22;19565;46.602;11.534;2023-04-25T06:03:36;8.90;95.20
33207;DHT22;19565;46.602;11.534;2023-04-25T06:06:05;9.00;94.70
33207;DHT22;19565;46.602;11.534;2023-04-25T06:08:34;9.20;94.60
33207;DHT22;19565;46.602;11.534;2023-04-25T06:11:02;9.30;94.10
33207;DHT22;19565;46.602;11.534;2023-04-25T06:13:30;9.30;93.80
33207;DHT22;19565;46.602;11.534;2023-04-25T06:15:59;9.30;93.30
33207;DHT22;19565;46.602;11.534;2023-04-25T06:18:27;9.40;93.20
33207;DHT22;19565;46.602;11.534;2023-04-25T06:20:55;9.40;93.00
33207;DHT22;19565;46.602;11.534;2023-04-25T06:23:23;9.30;92.80
33207;DHT22;19565;46.602;11.534;2023-04-25T06:25:51;9.10;93.00
33207;DHT22;19565;46.602;11.534;2023-04-25T06:28:20;8.80;93.30
33207;DHT22;19565;46.602;11.534;2023-04-25T06:30:50;8.60;93.70
33207;DHT22;19565;46.602;11.534;2023-04-25T06:33:20;8.60;94.00
33207;DHT22;19565;46.602;11.534;2023-04-25T06:35:48;8.60;93.90
33207;DHT22;19565;46.602;11.534;2023-04-25T06:38:16;8.70;93.90
33207;DHT22;19565;46.602;11.534;2023-04-25T06:40:44;8.70;93.80
33207;DHT22;19565;46.602;11.534;2023-04-25T06:43:12;8.80;93.90
33207;DHT22;19565;46.602;11.534;2023-04-25T06:45:40;8.90;93.70
33207;DHT22;19565;46.602;11.534;2023-04-25T06:48:10;9.10;93.80
33207;DHT22;19565;46.602;11.534;2023-04-25T06:50:39;9.30;93.50
33207;DHT22;19565;46.602;11.534;2023-04-25T06:53:07;9.50;93.10
33207;DHT22;19565;46.602;11.534;2023-04-25T06:55:35;9.60;92.90
33207;DHT22;19565;46.602;11.534;2023-04-25T06:58:03;9.70;92.10
33207;DHT22;19565;46.602;11.534;2023-04-25T07:00:31;9.60;91.70
33207;DHT22;19565;46.602;11.534;2023-04-25T07:03:00;9.60;91.80
33207;DHT22;19565;46.602;11.534;2023-04-25T07:05:29;9.70;91.90
33207;DHT22;19565;46.602;11.534;2023-04-25T07:07:59;9.70;92.00
33207;DHT22;19565;46.602;11.534;2023-04-25T07:10:27;9.80;91.90
33207;DHT22;19565;46.602;11.534;2023-04-25T07:12:55;9.90;91.50
33207;DHT22;19565;46.602;11.534;2023-04-25T07:15:23;10.00;91.60
33207;DHT22;19565;46.602;11.534;2023-04-25T07:17:51;10.10;91.20
33207;DHT22;19565;46.602;11.534;2023-04-25T07:20:19;10.20;91.10
33207;DHT22;19565;46.602;11.534;2023-04-25T07:22:47;10.30;91.20
33207;DHT22;19565;46.602;11.534;2023-04-25T07:25:18;10.40;91.20
33207;DHT22;19565;46.602;11.534;2023-04-25T07:27:46;10.50;90.80
33207;DHT22;19565;46.602;11.534;2023-04-25T07:30:14;10.50;90.40
33207;DHT22;19565;46.602;11.534;2023-04-25T07:32:42;10.50;90.20
33207;DHT22;19565;46.602;11.534;2023-04-25T07:35:12;10.60;90.60
33207;DHT22;19565;46.602;11.534;2023-04-25T07:37:40;10.60;90.40
33207;DHT22;19565;46.602;11.534;2023-04-25T07:40:09;10.70;90.30
33207;DHT22;19565;46.602;11.534;2023-04-25T07:42:38;10.80;90.00
33207;DHT22;19565;46.602;11.534;2023-04-25T07:45:07;10.80;89.00
33207;DHT22;19565;46.602;11.534;2023-04-25T07:47:36;10.90;89.30
33207;DHT22;19565;46.602;11.534;2023-04-25T07:50:06;10.90;88.30
33207;DHT22;19565;46.602;11.534;2023-04-25T07:52:34;11.00;87.80
33207;DHT22;19565;46.602;11.534;2023-04-25T07:55:03;11.10;87.30
33207;DHT22;19565;46.602;11.534;2023-04-25T07:57:31;11.20;85.50
33207;DHT22;19565;46.602;11.534;2023-04-25T08:00:00;11.20;84.70
33207;DHT22;19565;46.602;11.534;2023-04-25T08:02:28;11.30;84.50
33207;DHT22;19565;46.602;11.534;2023-04-25T08:04:56;11.40;84.30
33207;DHT22;19565;46.602;11.534;2023-04-25T08:07:24;11.40;84.50
33207;DHT22;19565;46.602;11.534;2023-04-25T08:09:54;11.50;85.00
33207;DHT22;19565;46.602;11.534;2023-04-25T08:12:22;11.60;80.90
33207;DHT22;19565;46.602;11.534;2023-04-25T08:14:50;11.60;81.80
33207;DHT22;19565;46.602;11.534;2023-04-25T08:17:19;11.70;80.60
33207;DHT22;19565;46.602;11.534;2023-04-25T08:19:50;11.80;80.70
33207;DHT22;19565;46.602;11.534;2023-04-25T08:22:18;12.00;81.90
33207;DHT22;19565;46.602;11.534;2023-04-25T08:24:46;12.10;80.20
33207;DHT22;19565;46.602;11.534;2023-04-25T08:27:14;12.20;79.30
33207;DHT22;19565;46.602;11.534;2023-04-25T08:29:42;12.30;79.00
33207;DHT22;19565;46.602;11.534;2023-04-25T08:32:10;12.40;79.00
33207;DHT22;19565;46.602;11.534;2023-04-25T08:34:42;12.50;76.60
33207;DHT22;19565;46.602;11.534;2023-04-25T08:37:10;12.60;76.60
33207;DHT22;19565;46.602;11.534;2023-04-25T08:39:38;12.70;74.80
33207;DHT22;19565;46.602;11.534;2023-04-25T08:42:07;12.80;73.90
33207;DHT22;19565;46.602;11.534;2023-04-25T08:44:35;12.90;74.20
33207;DHT22;19565;46.602;11.534;2023-04-25T08:47:04;13.00;74.50
33207;DHT22;19565;46.602;11.534;2023-04-25T08:49:33;13.00;72.40
33207;DHT22;19565;46.602;11.534;2023-04-25T08:52:04;13.10;72.50
33207;DHT22;19565;46.602;11.534;2023-04-25T08:54:33;13.20;70.40
33207;DHT22;19565;46.602;11.534;2023-04-25T08:57:05;13.20;70.20
33207;DHT22;19565;46.602;11.534;2023-04-25T08:59:34;13.30;69.50
33207;DHT22;19565;46.602;11.534;2023-04-25T09:02:05;13.40;69.10
33207;DHT22;19565;46.602;11.534;2023-04-25T09:04:33;13.50;69.50
33207;DHT22;19565;46.602;11.534;2023-04-25T09:07:02;13.60;70.30
33207;DHT22;19565;46.602;11.534;2023-04-25T09:09:30;13.60;69.30
33207;DHT22;19565;46.602;11.534;2023-04-25T09:11:58;13.70;68.30
33207;DHT22;19565;46.602;11.534;2023-04-25T09:14:28;13.70;67.00
33207;DHT22;19565;46.602;11.534;2023-04-25T09:17:01;13.80;67.60
33207;DHT22;19565;46.602;11.534;2023-04-25T09:19:33;13.80;65.80
33207;DHT22;19565;46.602;11.534;2023-04-25T09:22:08;13.80;65.30
33207;DHT22;19565;46.602;11.534;2023-04-25T09:24:37;13.80;65.00
33207;DHT22;19565;46.602;11.534;2023-04-25T09:27:06;13.80;64.90
33207;DHT22;19565;46.602;11.534;2023-04-25T09:29:36;13.80;65.00
33207;DHT22;19565;46.602;11.534;2023-04-25T09:32:12;13.80;64.50
33207;DHT22;19565;46.602;11.534;2023-04-25T09:34:42;13.90;64.50
33207;DHT22;19565;46.602;11.534;2023-04-25T09:37:12;13.90;64.30
33207;DHT22;19565;46.602;11.534;2023-04-25T09:39:40;13.90;62.30
33207;DHT22;19565;46.602;11.534;2023-04-25T09:42:09;14.00;62.80
33207;DHT22;19565;46.602;11.534;2023-04-25T09:44:42;14.10;59.70
33207;DHT22;19565;46.602;11.534;2023-04-25T09:47:11;14.20;58.80
33207;DHT22;19565;46.602;11.534;2023-04-25T09:49:41;14.30;59.50
33207;DHT22;19565;46.602;11.534;2023-04-25T09:52:14;14.40;57.70
33207;DHT22;19565;46.602;11.534;2023-04-25T09:54:42;14.50;57.10
33207;DHT22;19565;46.602;11.534;2023-04-25T09:57:11;14.60;53.30
33207;DHT22;19565;46.602;11.534;2023-04-25T09:59:43;14.60;53.00
33207;DHT22;19565;46.602;11.534;2023-04-25T10:02:14;14.70;54.60
33207;DHT22;19565;46.602;11.534;2023-04-25T10:04:44;14.80;55.10
33207;DHT22;19565;46.602;11.534;2023-04-25T10:07:16;14.80;53.50
33207;DHT22;19565;46.602;11.534;2023-04-25T10:09:47;14.90;53.10
33207;DHT22;19565;46.602;11.534;2023-04-25T10:12:16;14.90;54.40
33207;DHT22;19565;46.602;11.534;2023-04-25T10:14:44;14.80;54.60
33207;DHT22;19565;46.602;11.534;2023-04-25T10:17:14;14.90;53.70
33207;DHT22;19565;46.602;11.534;2023-04-25T10:19:42;14.90;54.20
33207;DHT22;19565;46.602;11.534;2023-04-25T10:22:16;14.80;53.80
33207;DHT22;19565;46.602;11.534;2023-04-25T10:24:46;14.80;54.20
33207;DHT22;19565;46.602;11.534;2023-04-25T10:27:14;14.90;54.50
33207;DHT22;19565;46.602;11.534;2023-04-25T10:29:43;14.90;54.60
33207;DHT22;19565;46.602;11.534;2023-04-25T10:32:11;14.90;55.50
33207;DHT22;19565;46.602;11.534;2023-04-25T10:34:41;14.80;57.80
33207;DHT22;19565;46.602;11.534;2023-04-25T10:37:10;14.80;55.30
33207;DHT22;19565;46.602;11.534;2023-04-25T10:39:39;14.80;55.40
33207;DHT22;19565;46.602;11.534;2023-04-25T10:42:08;14.80;58.30
33207;DHT22;19565;46.602;11.534;2023-04-25T10:44:37;14.70;57.80
33207;DHT22;19565;46.602;11.534;2023-04-25T10:47:07;14.70;56.20
33207;DHT22;19565;46.602;11.534;2023-04-25T10:49:37;14.60;58.40
33207;DHT22;19565;46.602;11.534;2023-04-25T10:52:17;14.50;61.60
33207;DHT22;19565;46.602;11.534;2023-04-25T10:54:51;14.40;70.30
33207;DHT22;19565;46.602;11.534;2023-04-25T10:57:36;14.30;75.60
33207;DHT22;19565;46.602;11.534;2023-04-25T11:00:11;14.40;79.00
33207;DHT22;19565;46.602;11.534;2023-04-25T11:02:44;14.50;79.90
33207;DHT22;19565;46.602;11.534;2023-04-25T11:05:31;14.50;77.00
33207;DHT22;19565;46.602;11.534;2023-04-25T11:08:29;14.60;75.60
33207;DHT22;19565;46.602;11.534;2023-04-25T11:11:03;14.60;75.40
33207;DHT22;19565;46.602;11.534;2023-04-25T11:13:32;14.70;74.20
33207;DHT22;19565;46.602;11.534;2023-04-25T11:16:00;14.80;71.80
33207;DHT22;19565;46.602;11.534;2023-04-25T11:18:41;14.90;69.80
33207;DHT22;19565;46.602;11.534;2023-04-25T11:21:10;15.00;62.00
33207;DHT22;19565;46.602;11.534;2023-04-25T11:23:38;15.00;61.40
33207;DHT22;19565;46.602;11.534;2023-04-25T11:26:06;15.10;62.80
33207;DHT22;19565;46.602;11.534;2023-04-25T11:28:37;15.10;59.60
33207;DHT22;19565;46.602;11.534;2023-04-25T11:31:06;15.10;58.30
33207;DHT22;19565;46.602;11.534;2023-04-25T11:33:34;15.10;57.20
33207;DHT22;19565;46.602;11.534;2023-04-25T11:36:01;14.90;58.70
33207;DHT22;19565;46.602;11.534;2023-04-25T11:38:30;14.80;59.60
33207;DHT22;19565;46.602;11.534;2023-04-25T11:40:58;14.80;58.70
33207;DHT22;19565;46.602;11.534;2023-04-25T11:43:27;14.70;58.80
33207;DHT22;19565;46.602;11.534;2023-04-25T11:45:56;14.60;59.30
33207;DHT22;19565;46.602;11.534;2023-04-25T11:48:24;14.60;60.80
33207;DHT22;19565;46.602;11.534;2023-04-25T11:50:53;14.40;65.30
33207;DHT22;19565;46.602;11.534;2023-04-25T11:53:21;14.00;69.80
33207;DHT22;19565;46.602;11.534;2023-04-25T11:55:51;13.80;73.60
33207;DHT22;19565;46.602;11.534;2023-04-25T11:58:20;13.60;74.40
33207;DHT22;19565;46.602;11.534;2023-04-25T12:00:48;13.50;79.10
33207;DHT22;19565;46.602;11.534;2023-04-25T12:03:19;13.30;83.30
33207;DHT22;19565;46.602;11.534;2023-04-25T12:05:48;13.40;87.20
33207;DHT22;19565;46.602;11.534;2023-04-25T12:08:18;13.60;89.80
33207;DHT22;19565;46.602;11.534;2023-04-25T12:10:46;13.80;91.00
33207;DHT22;19565;46.602;11.534;2023-04-25T12:13:20;14.00;92.60
33207;DHT22;19565;46.602;11.534;2023-04-25T12:15:48;13.90;92.20
33207;DHT22;19565;46.602;11.534;2023-04-25T12:18:20;13.90;89.20
33207;DHT22;19565;46.602;11.534;2023-04-25T12:20:49;13.90;89.80
33207;DHT22;19565;46.602;11.534;2023-04-25T12:23:17;13.90;91.60
33207;DHT22;19565;46.602;11.534;2023-04-25T12:25:45;13.90;92.30
33207;DHT22;19565;46.602;11.534;2023-04-25T12:28:15;13.90;92.00
33207;DHT22;19565;46.602;11.534;2023-04-25T12:30:53;13.90;93.40
33207;DHT22;19565;46.602;11.534;2023-04-25T12:33:24;13.90;94.30
33207;DHT22;19565;46.602;11.534;2023-04-25T12:35:53;13.90;95.00
33207;DHT22;19565;46.602;11.534;2023-04-25T12:38:22;13.80;94.70
33207;DHT22;19565;46.602;11.534;2023-04-25T12:40:50;13.80;94.20
33207;DHT22;19565;46.602;11.534;2023-04-25T12:43:18;13.80;94.70
33207;DHT22;19565;46.602;11.534;2023-04-25T12:45:48;13.80;94.20
33207;DHT22;19565;46.602;11.534;2023-04-25T12:48:16;13.70;93.70
33207;DHT22;19565;46.602;11.534;2023-04-25T12:50:46;13.80;94.00
33207;DHT22;19565;46.602;11.534;2023-04-25T12:53:16;13.80;94.40
33207;DHT22;19565;46.602;11.534;2023-04-25T12:55:44;13.90;95.10
33207;DHT22;19565;46.602;11.534;2023-04-25T12:58:13;14.00;96.30
33207;DHT22;19565;46.602;11.534;2023-04-25T13:00:41;14.00;95.70
33207;DHT22;19565;46.602;11.534;2023-04-25T13:03:10;13.90;91.90
33207;DHT22;19565;46.602;11.534;2023-04-25T13:05:39;14.00;89.50
33207;DHT22;19565;46.602;11.534;2023-04-25T13:08:09;14.00;86.00
33207;DHT22;19565;46.602;11.534;2023-04-25T13:10:37;14.00;82.10
33207;DHT22;19565;46.602;11.534;2023-04-25T13:13:06;14.10;82.40
33207;DHT22;19565;46.602;11.534;2023-04-25T13:15:34;14.10;82.20
33207;DHT22;19565;46.602;11.534;2023-04-25T13:18:03;14.10;80.60
33207;DHT22;19565;46.602;11.534;2023-04-25T13:20:31;14.10;81.50
33207;DHT22;19565;46.602;11.534;2023-04-25T13:22:59;14.10;88.80
33207;DHT22;19565;46.602;11.534;2023-04-25T13:25:30;14.10;91.30
33207;DHT22;19565;46.602;11.534;2023-04-25T13:27:58;14.00;92.40
33207;DHT22;19565;46.602;11.534;2023-04-25T13:30:26;14.10;91.50
33207;DHT22;19565;46.602;11.534;2023-04-25T13:32:54;14.10;90.30
33207;DHT22;19565;46.602;11.534;2023-04-25T13:35:23;14.20;88.60
33207;DHT22;19565;46.602;11.534;2023-04-25T13:37:52;14.30;87.00
33207;DHT22;19565;46.602;11.534;2023-04-25T13:40:20;14.40;84.30
33207;DHT22;19565;46.602;11.534;2023-04-25T13:42:52;14.50;83.00
33207;DHT22;19565;46.602;11.534;2023-04-25T13:45:20;14.60;81.70
33207;DHT22;19565;46.602;11.534;2023-04-25T13:47:48;14.70;81.20
33207;DHT22;19565;46.602;11.534;2023-04-25T13:50:17;14.80;80.90
33207;DHT22;19565;46.602;11.534;2023-04-25T13:52:45;14.90;80.30
33207;DHT22;19565;46.602;11.534;2023-04-25T13:55:13;14.90;78.60
33207;DHT22;19565;46.602;11.534;2023-04-25T13:57:41;15.00;75.70
33207;DHT22;19565;46.602;11.534;2023-04-25T14:00:13;15.10;74.00
33207;DHT22;19565;46.602;11.534;2023-04-25T14:02:41;15.20;72.90
33207;DHT22;19565;46.602;11.534;2023-04-25T14:05:09;15.30;73.80
33207;DHT22;19565;46.602;11.534;2023-04-25T14:07:37;15.40;73.30
33207;DHT22;19565;46.602;11.534;2023-04-25T14:10:06;15.40;70.50
33207;DHT22;19565;46.602;11.534;2023-04-25T14:12:34;15.40;69.60
33207;DHT22;19565;46.602;11.534;2023-04-25T14:15:03;15.40;70.00
33207;DHT22;19565;46.602;11.534;2023-04-25T14:17:33;15.40;70.70
33207;DHT22;19565;46.602;11.534;2023-04-25T14:20:01;15.40;70.80
33207;DHT22;19565;46.602;11.534;2023-04-25T14:22:32;15.40;71.30
33207;DHT22;19565;46.602;11.534;2023-04-25T14:25:00;15.40;70.60
33207;DHT22;19565;46.602;11.534;2023-04-25T14:27:28;15.40;69.10
33207;DHT22;19565;46.602;11.534;2023-04-25T14:29:55;15.40;68.50
33207;DHT22;19565;46.602;11.534;2023-04-25T14:32:36;15.30;67.60
33207;DHT22;19565;46.602;11.534;2023-04-25T14:35:04;15.30;66.30
33207;DHT22;19565;46.602;11.534;2023-04-25T14:37:33;15.20;66.90
33207;DHT22;19565;46.602;11.534;2023-04-25T14:40:01;15.20;65.60
33207;DHT22;19565;46.602;11.534;2023-04-25T14:42:30;15.20;64.80
33207;DHT22;19565;46.602;11.534;2023-04-25T14:44:58;15.30;65.50
33207;DHT22;19565;46.602;11.534;2023-04-25T14:47:26;15.30;66.00
33207;DHT22;19565;46.602;11.534;2023-04-25T14:49:56;15.40;67.10
33207;DHT22;19565;46.602;11.534;2023-04-25T14:52:24;15.30;67.30
33207;DHT22;19565;46.602;11.534;2023-04-25T14:54:52;15.40;67.00
33207;DHT22;19565;46.602;11.534;2023-04-25T14:57:20;15.30;65.70
33207;DHT22;19565;46.602;11.534;2023-04-25T14:59:48;15.30;64.80
33207;DHT22;19565;46.602;11.534;2023-04-25T15:02:16;15.30;65.20
33207;DHT22;19565;46.602;11.534;2023-04-25T15:04:44;15.30;66.40
33207;DHT22;19565;46.602;11.534;2023-04-25T15:07:14;15.30;66.30
33207;DHT22;19565;46.602;11.534;2023-04-25T15:09:44;15.40;66.20
33207;DHT22;19565;46.602;11.534;2023-04-25T15:12:12;15.50;68.40
33207;DHT22;19565;46.602;11.534;2023-04-25T15:14:40;15.50;68.80
33207;DHT22;19565;46.602;11.534;2023-04-25T15:17:08;15.50;68.00
33207;DHT22;19565;46.602;11.534;2023-04-25T15:19:36;15.40;67.20
33207;DHT22;19565;46.602;11.534;2023-04-25T15:22:04;15.40;69.30
33207;DHT22;19565;46.602;11.534;2023-04-25T15:24:34;15.30;72.20
33207;DHT22;19565;46.602;11.534;2023-04-25T15:27:03;15.20;69.20
33207;DHT22;19565;46.602;11.534;2023-04-25T15:29:31;15.20;73.90
33207;DHT22;19565;46.602;11.534;2023-04-25T15:31:59;15.20;74.20
33207;DHT22;19565;46.602;11.534;2023-04-25T15:34:27;15.10;75.80